createdAt,value
2022-12-25T00:00:55.449Z,97117.50
2022-12-25T00:03:22.157Z,97113.59
2022-12-25T00:05:48.893Z,97117.19
2022-12-25T00:08:15.509Z,97123.03
2022-12-25T00:10:45.177Z,97127.53
2022-12-25T00:13:12.270Z,97133.53
2022-12-25T00:15:42.623Z,97129.72
2022-12-25T00:18:09.215Z,97124.47
2022-12-25T00:20:35.994Z,97130.38
2022-12-25T00:23:02.918Z,97127.03
2022-12-25T00:25:29.339Z,97129.97
2022-12-25T00:27:55.944Z,97126.06
2022-12-25T00:30:22.508Z,97116.97
2022-12-25T00:32:49.303Z,97121.34
2022-12-25T00:35:15.860Z,97123.25
2022-12-25T00:37:42.355Z,97122.75
2022-12-25T00:40:09.555Z,97113.72
2022-12-25T00:42:36.182Z,97113.72
2022-12-25T00:45:02.710Z,97114.59
2022-12-25T00:47:29.551Z,97124.44
2022-12-25T00:49:56.144Z,97119.03
2022-12-25T00:52:22.630Z,97112.91
2022-12-25T00:54:49.038Z,97115.19
2022-12-25T00:57:16.308Z,97117.31
2022-12-25T00:59:42.914Z,97112.75
2022-12-25T01:02:24.867Z,97108.19
2022-12-25T01:04:54.447Z,97107.31
2022-12-25T01:07:22.805Z,97111.25
2022-12-25T01:10:07.811Z,97111.91
2022-12-25T01:12:37.523Z,97118.91
2022-12-25T01:15:06.468Z,97114.47
2022-12-25T01:17:33.141Z,97121.13
2022-12-25T01:19:59.771Z,97119.03
2022-12-25T01:22:26.470Z,97119.75
2022-12-25T01:24:52.894Z,97120.78
2022-12-25T01:27:19.640Z,97117.59
2022-12-25T01:29:46.639Z,97115.97
2022-12-25T01:32:13.585Z,97122.25
2022-12-25T01:34:40.060Z,97132.06
2022-12-25T01:37:07.216Z,97127.03
2022-12-25T01:39:34.026Z,97122.00
2022-12-25T01:42:00.547Z,97123.63
2022-12-25T01:44:36.166Z,97129.78
2022-12-25T01:47:03.608Z,97136.06
2022-12-25T01:49:33.385Z,97135.47
2022-12-25T01:52:05.431Z,97132.28
2022-12-25T01:54:40.749Z,97126.44
2022-12-25T01:57:11.906Z,97117.81
2022-12-25T01:59:39.499Z,97129.09
2022-12-25T02:02:06.218Z,97126.94
2022-12-25T02:04:40.625Z,97127.97
2022-12-25T02:07:15.122Z,97114.81
2022-12-25T02:09:42.634Z,97107.94
2022-12-25T02:12:15.019Z,97108.22
2022-12-25T02:14:41.692Z,97120.19
2022-12-25T02:17:33.718Z,97112.31
2022-12-25T02:20:15.364Z,97118.44
2022-12-25T02:23:00.619Z,97115.25
2022-12-25T02:25:48.395Z,97117.59
2022-12-25T02:28:26.787Z,97130.97
2022-12-25T02:30:59.989Z,97119.66
2022-12-25T02:33:50.756Z,97114.41
2022-12-25T02:36:24.946Z,97113.94
2022-12-25T02:39:28.571Z,97110.72
2022-12-25T02:41:58.280Z,97112.78
2022-12-25T02:44:44.275Z,97115.84
2022-12-25T02:47:29.602Z,97116.28
2022-12-25T02:50:16.362Z,97106.28
2022-12-25T02:53:03.346Z,97108.69
2022-12-25T02:55:55.313Z,97109.16
2022-12-25T02:58:42.742Z,97108.41
2022-12-25T03:01:34.212Z,97108.75
2022-12-25T03:04:23.561Z,97108.41
2022-12-25T03:06:58.522Z,97108.84
2022-12-25T03:09:46.180Z,97106.53
2022-12-25T03:12:44.133Z,97101.00
2022-12-25T03:15:31.439Z,97098.94
2022-12-25T03:18:03.150Z,97088.69
2022-12-25T03:20:49.290Z,97093.06
2022-12-25T03:23:38.506Z,97090.97
2022-12-25T03:26:23.943Z,97095.06
2022-12-25T03:28:50.369Z,97088.94
2022-12-25T03:31:26.564Z,97075.91
2022-12-25T03:34:39.668Z,97075.25
2022-12-25T03:37:43.370Z,97061.88
2022-12-25T03:40:40.662Z,97068.88
2022-12-25T03:43:30.790Z,97069.59
2022-12-25T03:46:21.705Z,97082.88
2022-12-25T03:49:15.230Z,97092.06
2022-12-25T03:52:02.280Z,97083.63
2022-12-25T03:54:52.402Z,97081.47
2022-12-25T03:57:38.021Z,97067.78
2022-12-25T04:00:23.801Z,97068.53
2022-12-25T04:03:09.226Z,97066.84
2022-12-25T04:05:54.505Z,97070.53
2022-12-25T04:08:39.369Z,97065.78
2022-12-25T04:11:24.315Z,97059.22
2022-12-25T04:14:09.169Z,97062.28
2022-12-25T04:16:54.516Z,97059.22
2022-12-25T04:19:39.413Z,97057.16
2022-12-25T04:22:24.641Z,97056.16
2022-12-25T04:25:09.432Z,97049.16
2022-12-25T04:27:54.346Z,97054.59
2022-12-25T04:30:39.365Z,97052.25
2022-12-25T04:33:24.384Z,97043.19
2022-12-25T04:36:11.618Z,97047.47
2022-12-25T04:38:39.882Z,97048.28
2022-12-25T04:41:09.943Z,97056.00
2022-12-25T04:43:36.675Z,97056.13
2022-12-25T04:46:04.694Z,97049.97
2022-12-25T04:48:32.819Z,97044.72
2022-12-25T04:51:17.001Z,97042.34
2022-12-25T04:53:44.327Z,97044.97
2022-12-25T04:56:10.898Z,97050.16
2022-12-25T04:58:37.625Z,97054.81
2022-12-25T05:01:05.002Z,97044.56
2022-12-25T05:03:32.768Z,97032.28
2022-12-25T05:05:59.968Z,97052.84
2022-12-25T05:08:28.117Z,97050.50
2022-12-25T05:10:54.614Z,97056.06
2022-12-25T05:13:21.151Z,97029.66
2022-12-25T05:15:47.851Z,97033.31
2022-12-25T05:18:14.506Z,97032.94
2022-12-25T05:20:41.031Z,97029.75
2022-12-25T05:23:10.841Z,97030.56
2022-12-25T05:25:40.455Z,97036.63
2022-12-25T05:28:07.549Z,97024.50
2022-12-25T05:30:34.840Z,97032.50
2022-12-25T05:33:01.673Z,97025.19
2022-12-25T05:35:28.105Z,97022.13
2022-12-25T05:37:54.505Z,97021.53
2022-12-25T05:40:20.980Z,97024.75
2022-12-25T05:42:47.393Z,97020.63
2022-12-25T05:45:13.844Z,97018.00
2022-12-25T05:47:40.296Z,97005.31
2022-12-25T05:50:07.518Z,97005.75
2022-12-25T05:52:34.438Z,97006.56
2022-12-25T05:55:01.410Z,97006.13
2022-12-25T05:57:31.901Z,97010.00
2022-12-25T05:59:58.514Z,97010.34
2022-12-25T06:02:25.505Z,97006.66
2022-12-25T06:04:52.308Z,97002.19
2022-12-25T06:07:18.846Z,97007.72
2022-12-25T06:09:45.279Z,96999.22
2022-12-25T06:12:11.954Z,96995.78
2022-12-25T06:14:38.406Z,97004.09
2022-12-25T06:17:04.991Z,96989.34
2022-12-25T06:19:31.531Z,96991.59
2022-12-25T06:21:58.058Z,96990.13
2022-12-25T06:24:24.900Z,96997.41
2022-12-25T06:26:51.430Z,96995.88
2022-12-25T06:29:17.906Z,96984.31
2022-12-25T06:31:44.529Z,96984.16
2022-12-25T06:34:11.398Z,96977.03
2022-12-25T06:36:38.330Z,96978.78
2022-12-25T06:39:04.805Z,96980.47
2022-12-25T06:41:31.716Z,96986.25
2022-12-25T06:44:01.179Z,96990.78
2022-12-25T06:46:29.487Z,96985.59
2022-12-25T06:48:57.672Z,96989.44
2022-12-25T06:51:27.493Z,96998.84
2022-12-25T06:53:55.114Z,97000.44
2022-12-25T06:56:26.913Z,97000.00
2022-12-25T06:58:58.809Z,97006.78
2022-12-25T07:01:31.928Z,97009.75
2022-12-25T07:04:01.685Z,97007.13
2022-12-25T07:06:29.029Z,97012.28
2022-12-25T07:08:55.617Z,97005.22
2022-12-25T07:11:22.173Z,97011.50
2022-12-25T07:13:48.834Z,97008.84
2022-12-25T07:16:15.683Z,97006.69
2022-12-25T07:18:42.504Z,97005.66
2022-12-25T07:21:14.412Z,97008.59
2022-12-25T07:23:41.547Z,97004.53
2022-12-25T07:26:09.251Z,97018.91
2022-12-25T07:28:35.699Z,97017.97
2022-12-25T07:31:16.674Z,97011.97
2022-12-25T07:33:43.525Z,96992.59
2022-12-25T07:36:12.870Z,97007.19
2022-12-25T07:38:42.701Z,96999.31
2022-12-25T07:41:13.294Z,96997.84
2022-12-25T07:43:40.090Z,96994.28
2022-12-25T07:46:06.796Z,96989.81
2022-12-25T07:48:33.393Z,96973.41
2022-12-25T07:51:05.047Z,96973.78
2022-12-25T07:53:32.318Z,96971.84
2022-12-25T07:56:05.264Z,96977.81
2022-12-25T07:58:32.749Z,96982.19
2022-12-25T08:01:05.301Z,96981.44
2022-12-25T08:03:33.337Z,96985.50
2022-12-25T08:06:02.111Z,96981.63
2022-12-25T08:08:29.127Z,96976.88
2022-12-25T08:10:55.821Z,96986.09
2022-12-25T08:13:22.264Z,96993.19
2022-12-25T08:15:48.814Z,96997.44
2022-12-25T08:18:15.275Z,97002.94
2022-12-25T08:20:41.799Z,96996.06
2022-12-25T08:23:08.197Z,97005.66
2022-12-25T08:25:34.933Z,96991.88
2022-12-25T08:28:01.663Z,96979.31
2022-12-25T08:30:28.421Z,96984.63
2022-12-25T08:32:55.143Z,96967.31
2022-12-25T08:35:21.799Z,96980.81
2022-12-25T08:37:48.381Z,96992.09
2022-12-25T08:40:14.925Z,96984.72
2022-12-25T08:42:41.399Z,96995.84
2022-12-25T08:45:08.402Z,97004.81
2022-12-25T08:47:34.848Z,97005.31
2022-12-25T08:50:01.594Z,96996.84
2022-12-25T08:52:28.890Z,97000.06
2022-12-25T08:54:55.316Z,97000.56
2022-12-25T08:57:21.837Z,96994.25
2022-12-25T08:59:48.256Z,96981.38
2022-12-25T09:02:17.080Z,96968.72
2022-12-25T09:04:46.223Z,96959.13
2022-12-25T09:07:12.806Z,96950.16
2022-12-25T09:09:39.330Z,96952.38
2022-12-25T09:12:05.868Z,96938.63
2022-12-25T09:14:32.337Z,96945.63
2022-12-25T09:16:58.903Z,96960.03
2022-12-25T09:19:25.327Z,96950.22
2022-12-25T09:21:51.868Z,96962.16
2022-12-25T09:24:18.444Z,96960.81
2022-12-25T09:26:44.859Z,96957.88
2022-12-25T09:29:11.326Z,96955.44
2022-12-25T09:31:37.824Z,96961.66
2022-12-25T09:34:04.257Z,96958.25
2022-12-25T09:36:30.713Z,96954.88
2022-12-25T09:38:57.242Z,96953.06
2022-12-25T09:41:29.908Z,96955.69
2022-12-25T09:44:13.392Z,96961.19
2022-12-25T09:46:47.332Z,96964.59
2022-12-25T09:49:38.772Z,96960.78
2022-12-25T09:52:11.729Z,96958.53
2022-12-25T09:54:53.490Z,96963.09
2022-12-25T09:57:20.097Z,96967.22
2022-12-25T09:59:47.581Z,96966.50
2022-12-25T10:02:32.435Z,96969.53
2022-12-25T10:05:07.133Z,96967.91
2022-12-25T10:07:45.721Z,96970.56
2022-12-25T10:10:34.150Z,96965.00
2022-12-25T10:13:38.485Z,96961.69
2022-12-25T10:16:23.734Z,96957.66
2022-12-25T10:19:16.646Z,96947.00
2022-12-25T10:21:43.438Z,96944.22
2022-12-25T10:24:33.305Z,96932.63
2022-12-25T10:27:04.720Z,96937.91
2022-12-25T10:29:34.857Z,96936.16
2022-12-25T10:32:01.506Z,96930.19
2022-12-25T10:34:28.908Z,96923.56
2022-12-25T10:36:55.598Z,96918.97
2022-12-25T10:39:24.896Z,96923.72
2022-12-25T10:42:33.850Z,96915.75
2022-12-25T10:45:02.811Z,96918.72
2022-12-25T10:47:35.014Z,96919.41
2022-12-25T10:50:19.029Z,96911.16
2022-12-25T10:53:09.265Z,96909.41
2022-12-25T10:55:35.705Z,96907.19
2022-12-25T10:58:02.286Z,96913.56
2022-12-25T11:00:31.402Z,96918.59
2022-12-25T11:02:58.895Z,96918.38
2022-12-25T11:05:28.567Z,96905.75
2022-12-25T11:07:56.167Z,96902.66
2022-12-25T11:10:38.307Z,96900.91
2022-12-25T11:13:19.185Z,96892.28
2022-12-25T11:15:48.798Z,96890.53
2022-12-25T11:18:21.429Z,96889.44
2022-12-25T11:20:59.413Z,96887.03
2022-12-25T11:23:28.721Z,96876.25
2022-12-25T11:26:06.587Z,96870.47
2022-12-25T11:28:36.884Z,96867.22
2022-12-25T11:31:14.329Z,96873.09
2022-12-25T11:34:16.485Z,96867.25
2022-12-25T11:36:48.817Z,96867.25
2022-12-25T11:39:31.591Z,96867.75
2022-12-25T11:42:06.741Z,96868.28
2022-12-25T11:44:54.322Z,96870.94
2022-12-25T11:47:33.933Z,96869.13
2022-12-25T11:50:31.014Z,96858.31
2022-12-25T11:53:01.957Z,96850.63
2022-12-25T11:55:41.306Z,96837.84
2022-12-25T11:58:26.162Z,96832.84
2022-12-25T12:00:56.341Z,96826.97
2022-12-25T12:03:35.926Z,96819.53
2022-12-25T12:06:07.010Z,96808.91
2022-12-25T12:08:35.522Z,96806.81
2022-12-25T12:11:18.654Z,96797.00
2022-12-25T12:14:07.705Z,96799.13
2022-12-25T12:16:34.947Z,96794.59
2022-12-25T12:19:23.847Z,96802.03
2022-12-25T12:21:50.613Z,96792.25
2022-12-25T12:24:20.612Z,96792.53
2022-12-25T12:26:59.251Z,96795.47
2022-12-25T12:29:29.896Z,96784.56
2022-12-25T12:32:03.752Z,96774.25
2022-12-25T12:34:42.945Z,96785.66
2022-12-25T12:37:25.199Z,96784.84
2022-12-25T12:39:54.469Z,96793.06
2022-12-25T12:42:26.362Z,96793.03
2022-12-25T12:44:55.562Z,96785.63
2022-12-25T12:47:28.044Z,96782.16
2022-12-25T12:49:59.707Z,96776.06
2022-12-25T12:52:33.184Z,96773.94
2022-12-25T12:55:09.098Z,96767.06
2022-12-25T12:57:39.832Z,96761.47
2022-12-25T13:00:28.141Z,96765.97
2022-12-25T13:03:33.327Z,96783.53
2022-12-25T13:06:13.674Z,96788.81
2022-12-25T13:08:40.073Z,96790.97
2022-12-25T13:11:12.430Z,96778.19
2022-12-25T13:13:44.300Z,96762.28
2022-12-25T13:16:22.844Z,96762.78
2022-12-25T13:18:52.561Z,96770.75
2022-12-25T13:21:23.541Z,96783.53
2022-12-25T13:23:56.244Z,96780.34
2022-12-25T13:26:23.775Z,96771.03
2022-12-25T13:28:50.262Z,96766.53
2022-12-25T13:31:22.630Z,96756.97
2022-12-25T13:33:52.426Z,96769.72
2022-12-25T13:36:19.199Z,96774.50
2022-12-25T13:38:49.235Z,96782.44
2022-12-25T13:41:41.172Z,96764.94
2022-12-25T13:44:22.938Z,96767.06
2022-12-25T13:46:49.473Z,96777.94
2022-12-25T13:49:23.755Z,96772.38
2022-12-25T13:51:50.951Z,96763.88
2022-12-25T13:54:18.327Z,96777.09
2022-12-25T13:56:58.751Z,96783.50
2022-12-25T13:59:25.760Z,96780.84
2022-12-25T14:01:54.038Z,96762.28
2022-12-25T14:04:24.016Z,96757.53
2022-12-25T14:06:52.006Z,96755.91
2022-12-25T14:09:19.932Z,96762.84
2022-12-25T14:11:51.144Z,96760.13
2022-12-25T14:14:23.070Z,96755.38
2022-12-25T14:16:53.427Z,96746.88
2022-12-25T14:19:33.487Z,96754.28
2022-12-25T14:22:05.491Z,96760.88
2022-12-25T14:24:34.081Z,96757.41
2022-12-25T14:27:03.151Z,96749.44
2022-12-25T14:29:36.223Z,96757.47
2022-12-25T14:32:16.057Z,96753.59
2022-12-25T14:34:46.141Z,96748.28
2022-12-25T14:37:21.357Z,96757.72
2022-12-25T14:39:57.519Z,96776.50
2022-12-25T14:42:27.099Z,96772.53
2022-12-25T14:45:04.639Z,96772.47
2022-12-25T14:47:32.843Z,96778.22
2022-12-25T14:49:59.931Z,96775.53
2022-12-25T14:52:43.327Z,96778.16
2022-12-25T14:55:20.150Z,96778.16
2022-12-25T14:58:01.541Z,96788.03
2022-12-25T15:00:32.782Z,96789.59
2022-12-25T15:03:01.203Z,96781.56
2022-12-25T15:05:29.656Z,96777.03
2022-12-25T15:08:25.940Z,96767.81
2022-12-25T15:11:01.122Z,96771.94
2022-12-25T15:13:30.255Z,96788.13
2022-12-25T15:15:59.411Z,96792.66
2022-12-25T15:18:31.601Z,96784.75
2022-12-25T15:20:58.519Z,96784.16
2022-12-25T15:23:25.573Z,96782.94
2022-12-25T15:25:52.485Z,96783.78
2022-12-25T15:28:19.323Z,96787.22
2022-12-25T15:30:46.186Z,96787.31
2022-12-25T15:33:17.755Z,96789.56
2022-12-25T15:35:44.981Z,96776.56
2022-12-25T15:38:13.068Z,96781.03
2022-12-25T15:40:40.492Z,96784.78
2022-12-25T15:43:14.606Z,96781.88
2022-12-25T15:45:48.929Z,96778.03
2022-12-25T15:48:15.356Z,96778.78
2022-12-25T15:50:41.790Z,96782.00
2022-12-25T15:53:10.684Z,96787.69
2022-12-25T15:55:37.233Z,96787.84
2022-12-25T15:58:03.703Z,96795.03
2022-12-25T16:00:30.348Z,96790.91
2022-12-25T16:02:57.049Z,96786.47
2022-12-25T16:05:24.850Z,96784.28
2022-12-25T16:07:51.283Z,96782.22
2022-12-25T16:10:19.595Z,96782.22
2022-12-25T16:12:46.646Z,96778.50
2022-12-25T16:15:14.894Z,96790.19
2022-12-25T16:17:41.656Z,96799.81
2022-12-25T16:20:09.229Z,96796.47
2022-12-25T16:22:40.062Z,96800.53
2022-12-25T16:25:13.304Z,96798.97
2022-12-25T16:27:39.803Z,96806.50
2022-12-25T16:30:06.978Z,96796.63
2022-12-25T16:32:33.497Z,96802.94
2022-12-25T16:34:59.895Z,96817.53
2022-12-25T16:37:27.676Z,96803.28
2022-12-25T16:39:54.120Z,96802.03
2022-12-25T16:42:20.712Z,96810.84
2022-12-25T16:44:47.166Z,96810.50
2022-12-25T16:47:13.787Z,96813.59
2022-12-25T16:49:40.345Z,96816.03
2022-12-25T16:52:06.766Z,96814.94
2022-12-25T16:54:33.306Z,96824.97
2022-12-25T16:56:59.862Z,96825.38
2022-12-25T16:59:28.637Z,96830.25
2022-12-25T17:01:55.188Z,96828.22
2022-12-25T17:04:22.141Z,96829.50
2022-12-25T17:06:49.081Z,96817.91
2022-12-25T17:09:15.550Z,96831.22
2022-12-25T17:11:42.016Z,96828.34
2022-12-25T17:14:09.938Z,96820.06
2022-12-25T17:16:37.205Z,96821.03
2022-12-25T17:19:12.897Z,96820.63
2022-12-25T17:21:39.477Z,96824.97
2022-12-25T17:24:06.333Z,96828.06
2022-12-25T17:26:33.708Z,96831.00
2022-12-25T17:29:00.370Z,96838.69
2022-12-25T17:31:27.230Z,96834.13
2022-12-25T17:33:54.080Z,96836.34
2022-12-25T17:36:22.055Z,96830.44
2022-12-25T17:38:48.833Z,96830.16
2022-12-25T17:41:17.078Z,96833.03
2022-12-25T17:43:45.614Z,96835.72
2022-12-25T17:46:20.810Z,96839.22
2022-12-25T17:48:49.865Z,96845.41
2022-12-25T17:51:19.349Z,96843.19
2022-12-25T17:53:48.498Z,96854.09
2022-12-25T17:56:16.213Z,96856.81
2022-12-25T17:58:43.811Z,96851.91
2022-12-25T18:01:13.333Z,96858.53
2022-12-25T18:03:40.199Z,96853.69
2022-12-25T18:06:10.153Z,96856.44
2022-12-25T18:08:39.555Z,96853.06
2022-12-25T18:11:09.103Z,96854.41
2022-12-25T18:13:36.127Z,96856.47
2022-12-25T18:16:05.368Z,96852.84
2022-12-25T18:18:32.735Z,96857.88
2022-12-25T18:20:59.536Z,96856.00
2022-12-25T18:23:26.684Z,96860.75
2022-12-25T18:25:53.137Z,96860.56
2022-12-25T18:28:19.889Z,96851.19
2022-12-25T18:30:46.781Z,96854.47
2022-12-25T18:33:14.311Z,96859.16
2022-12-25T18:35:42.621Z,96866.38
2022-12-25T18:38:10.013Z,96858.25
2022-12-25T18:40:44.002Z,96868.13
2022-12-25T18:43:10.953Z,96866.50
2022-12-25T18:45:37.551Z,96868.25
2022-12-25T18:48:06.177Z,96871.34
2022-12-25T18:50:38.467Z,96873.38
2022-12-25T18:53:05.569Z,96870.41
2022-12-25T18:55:32.245Z,96867.00
2022-12-25T18:57:59.215Z,96868.69
2022-12-25T19:00:26.180Z,96872.03
2022-12-25T19:02:57.948Z,96880.34
2022-12-25T19:05:24.699Z,96875.31
2022-12-25T19:07:51.185Z,96874.03
2022-12-25T19:10:17.899Z,96873.84
2022-12-25T19:12:44.457Z,96877.94
2022-12-25T19:15:11.092Z,96879.81
2022-12-25T19:17:37.599Z,96884.91
2022-12-25T19:20:06.106Z,96888.75
2022-12-25T19:22:32.695Z,96885.31
2022-12-25T19:24:59.223Z,96889.94
2022-12-25T19:27:25.764Z,96888.28
2022-12-25T19:29:52.203Z,96882.22
2022-12-25T19:32:18.608Z,96884.06
2022-12-25T19:34:45.103Z,96886.63
2022-12-25T19:37:11.536Z,96878.38
2022-12-25T19:39:38.058Z,96886.25
2022-12-25T19:42:04.539Z,96895.75
2022-12-25T19:44:30.994Z,96898.38
2022-12-25T19:46:57.473Z,96893.78
2022-12-25T19:49:23.916Z,96887.91
2022-12-25T19:51:50.386Z,96890.69
2022-12-25T19:54:18.816Z,96896.28
2022-12-25T19:56:47.125Z,96900.63
2022-12-25T19:59:14.528Z,96908.44
2022-12-25T20:01:41.321Z,96907.44
2022-12-25T20:04:09.876Z,96899.66
2022-12-25T20:06:38.805Z,96907.91
2022-12-25T20:09:11.783Z,96904.91
2022-12-25T20:11:38.938Z,96901.69
2022-12-25T20:14:07.097Z,96901.00
2022-12-25T20:16:36.688Z,96906.56
2022-12-25T20:19:03.753Z,96909.25
2022-12-25T20:21:30.712Z,96895.19
2022-12-25T20:23:57.748Z,96892.81
2022-12-25T20:26:29.965Z,96898.75
2022-12-25T20:28:57.845Z,96897.78
2022-12-25T20:31:30.026Z,96909.28
2022-12-25T20:33:59.390Z,96919.53
2022-12-25T20:36:31.050Z,96911.84
2022-12-25T20:39:01.011Z,96919.78
2022-12-25T20:41:29.062Z,96917.59
2022-12-25T20:43:56.154Z,96915.50
2022-12-25T20:46:23.205Z,96920.63
2022-12-25T20:48:49.753Z,96916.91
2022-12-25T20:51:22.172Z,96920.59
2022-12-25T20:53:49.473Z,96920.66
2022-12-25T20:56:18.021Z,96917.94
2022-12-25T20:58:44.931Z,96922.44
2022-12-25T21:01:14.991Z,96927.94
2022-12-25T21:03:42.282Z,96923.16
2022-12-25T21:06:10.091Z,96937.31
2022-12-25T21:08:37.661Z,96942.97
2022-12-25T21:11:04.924Z,96932.66
2022-12-25T21:13:34.016Z,96920.59
2022-12-25T21:16:00.701Z,96928.28
2022-12-25T21:18:28.370Z,96931.63
2022-12-25T21:20:57.288Z,96922.63
2022-12-25T21:23:26.616Z,96942.16
2022-12-25T21:25:54.650Z,96939.91
2022-12-25T21:28:21.321Z,96938.47
2022-12-25T21:30:47.845Z,96926.66
2022-12-25T21:33:33.569Z,96920.41
2022-12-25T21:36:11.002Z,96941.41
2022-12-25T21:38:38.489Z,96938.03
2022-12-25T21:41:07.961Z,96932.78
2022-12-25T21:43:35.558Z,96928.56
2022-12-25T21:46:04.003Z,96932.69
2022-12-25T21:48:30.450Z,96944.94
2022-12-25T21:51:23.991Z,96936.38
2022-12-25T21:53:50.667Z,96938.19
2022-12-25T21:56:17.543Z,96928.59
2022-12-25T21:58:44.185Z,96934.13
2022-12-25T22:01:11.669Z,96941.66
2022-12-25T22:03:38.247Z,96948.31
2022-12-25T22:06:23.430Z,96946.69
2022-12-25T22:08:49.834Z,96947.09
2022-12-25T22:11:35.162Z,96947.34
2022-12-25T22:14:20.102Z,96952.22
2022-12-25T22:17:26.179Z,96959.34
2022-12-25T22:19:52.694Z,96962.06
2022-12-25T22:22:22.125Z,96961.59
2022-12-25T22:24:49.547Z,96959.84
2022-12-25T22:27:17.105Z,96960.50
2022-12-25T22:29:43.829Z,96958.28
2022-12-25T22:32:11.534Z,96959.44
2022-12-25T22:34:38.295Z,96964.56
2022-12-25T22:37:06.016Z,96961.97
2022-12-25T22:39:33.639Z,96953.63
2022-12-25T22:42:01.515Z,96949.06
2022-12-25T22:44:30.684Z,96944.81
2022-12-25T22:46:58.167Z,96954.75
2022-12-25T22:49:26.710Z,96953.72
2022-12-25T22:51:53.616Z,96948.00
2022-12-25T22:54:21.859Z,96962.69
2022-12-25T22:56:50.580Z,96966.34
2022-12-25T22:59:19.897Z,96966.19
2022-12-25T23:01:46.955Z,96980.25
2022-12-25T23:04:13.481Z,96974.69
2022-12-25T23:06:40.314Z,96984.28
2022-12-25T23:09:08.438Z,96973.19
2022-12-25T23:11:35.984Z,96978.44
2022-12-25T23:14:21.095Z,96985.44
2022-12-25T23:16:47.536Z,96989.28
2022-12-25T23:19:33.217Z,96988.28
2022-12-25T23:22:29.365Z,96985.66
2022-12-25T23:25:14.769Z,96989.97
2022-12-25T23:27:41.546Z,96983.38
2022-12-25T23:30:13.753Z,96993.22
2022-12-25T23:32:40.596Z,96991.81
2022-12-25T23:35:07.580Z,96995.25
2022-12-25T23:37:34.030Z,96997.78
2022-12-25T23:40:00.493Z,96997.63
2022-12-25T23:42:26.918Z,96995.56
2022-12-25T23:44:53.444Z,96991.34
2022-12-25T23:47:19.897Z,97000.41
2022-12-25T23:49:46.482Z,96998.03
2022-12-25T23:52:13.083Z,96991.59
2022-12-25T23:54:39.856Z,96996.06
2022-12-25T23:57:06.337Z,97003.69
2022-12-25T23:59:32.834Z,97010.28
